sensor_id;sensor_type;location;lat;lon;timestamp;P1;durP1;ratioP1;P2;durP2;ratioP2
71869;SDS011;59739;47.696;11.746;2023-04-30T00:01:11;8.20;;;6.20;;
71869;SDS011;59739;47.696;11.746;2023-04-30T00:03:36;9.52;;;6.22;;
71869;SDS011;59739;47.696;11.746;2023-04-30T00:06:02;8.55;;;6.57;;
71869;SDS011;59739;47.696;11.746;2023-04-30T00:08:28;9.02;;;6.45;;
71869;SDS011;59739;47.696;11.746;2023-04-30T00:10:57;8.27;;;6.10;;
71869;SDS011;59739;47.696;11.746;2023-04-30T00:13:23;6.82;;;5.90;;
71869;SDS011;59739;47.696;11.746;2023-04-30T00:15:49;8.80;;;6.68;;
71869;SDS011;59739;47.696;11.746;2023-04-30T00:18:15;8.00;;;6.40;;
71869;SDS011;59739;47.696;11.746;2023-04-30T00:20:41;8.40;;;6.13;;
71869;SDS011;59739;47.696;11.746;2023-04-30T00:23:07;6.93;;;5.97;;
71869;SDS011;59739;47.696;11.746;2023-04-30T00:25:33;7.32;;;5.95;;
71869;SDS011;59739;47.696;11.746;2023-04-30T00:27:59;8.98;;;6.10;;
71869;SDS011;59739;47.696;11.746;2023-04-30T00:30:25;9.23;;;6.57;;
71869;SDS011;59739;47.696;11.746;2023-04-30T00:32:51;8.25;;;6.28;;
71869;SDS011;59739;47.696;11.746;2023-04-30T00:35:17;7.72;;;6.22;;
71869;SDS011;59739;47.696;11.746;2023-04-30T00:37:43;8.18;;;6.32;;
71869;SDS011;59739;47.696;11.746;2023-04-30T00:40:09;7.00;;;6.03;;
71869;SDS011;59739;47.696;11.746;2023-04-30T00:42:36;9.27;;;7.07;;
71869;SDS011;59739;47.696;11.746;2023-04-30T00:45:02;7.82;;;6.28;;
71869;SDS011;59739;47.696;11.746;2023-04-30T00:47:29;8.98;;;6.00;;
71869;SDS011;59739;47.696;11.746;2023-04-30T00:49:56;8.48;;;6.40;;
71869;SDS011;59739;47.696;11.746;2023-04-30T00:52:22;9.63;;;6.68;;
71869;SDS011;59739;47.696;11.746;2023-04-30T00:54:48;10.43;;;6.35;;
71869;SDS011;59739;47.696;11.746;2023-04-30T00:57:17;9.57;;;6.60;;
71869;SDS011;59739;47.696;11.746;2023-04-30T00:59:45;10.73;;;6.90;;
71869;SDS011;59739;47.696;11.746;2023-04-30T01:02:11;12.77;;;6.72;;
71869;SDS011;59739;47.696;11.746;2023-04-30T01:04:37;9.68;;;6.95;;
71869;SDS011;59739;47.696;11.746;2023-04-30T01:07:04;9.73;;;7.22;;
71869;SDS011;59739;47.696;11.746;2023-04-30T01:09:30;14.13;;;7.40;;
71869;SDS011;59739;47.696;11.746;2023-04-30T01:14:52;8.60;;;6.85;;
71869;SDS011;59739;47.696;11.746;2023-04-30T01:20:38;12.45;;;6.95;;
71869;SDS011;59739;47.696;11.746;2023-04-30T01:23:18;8.52;;;6.68;;
71869;SDS011;59739;47.696;11.746;2023-04-30T01:26:19;9.77;;;7.15;;
71869;SDS011;59739;47.696;11.746;2023-04-30T01:29:11;9.20;;;6.85;;
71869;SDS011;59739;47.696;11.746;2023-04-30T01:31:38;11.20;;;8.75;;
71869;SDS011;59739;47.696;11.746;2023-04-30T01:34:09;10.35;;;7.57;;
71869;SDS011;59739;47.696;11.746;2023-04-30T01:46:07;11.88;;;7.72;;
71869;SDS011;59739;47.696;11.746;2023-04-30T01:51:19;9.48;;;6.70;;
71869;SDS011;59739;47.696;11.746;2023-04-30T01:57:03;11.45;;;7.60;;
71869;SDS011;59739;47.696;11.746;2023-04-30T01:59:33;12.25;;;7.85;;
71869;SDS011;59739;47.696;11.746;2023-04-30T02:02:02;11.73;;;7.97;;
71869;SDS011;59739;47.696;11.746;2023-04-30T02:04:28;12.25;;;8.38;;
71869;SDS011;59739;47.696;11.746;2023-04-30T02:06:54;10.55;;;7.55;;
71869;SDS011;59739;47.696;11.746;2023-04-30T02:09:20;13.90;;;8.57;;
71869;SDS011;59739;47.696;11.746;2023-04-30T02:11:48;12.30;;;8.18;;
71869;SDS011;59739;47.696;11.746;2023-04-30T02:14:14;11.90;;;8.07;;
71869;SDS011;59739;47.696;11.746;2023-04-30T02:16:40;11.50;;;8.52;;
71869;SDS011;59739;47.696;11.746;2023-04-30T02:19:06;12.63;;;8.18;;
71869;SDS011;59739;47.696;11.746;2023-04-30T02:21:32;12.05;;;8.38;;
71869;SDS011;59739;47.696;11.746;2023-04-30T02:23:58;11.88;;;7.85;;
71869;SDS011;59739;47.696;11.746;2023-04-30T02:26:24;11.93;;;7.45;;
71869;SDS011;59739;47.696;11.746;2023-04-30T02:28:51;12.05;;;7.53;;
71869;SDS011;59739;47.696;11.746;2023-04-30T02:31:17;10.40;;;7.90;;
71869;SDS011;59739;47.696;11.746;2023-04-30T02:33:44;11.30;;;7.35;;
71869;SDS011;59739;47.696;11.746;2023-04-30T02:36:10;11.95;;;8.63;;
71869;SDS011;59739;47.696;11.746;2023-04-30T02:38:36;10.40;;;8.15;;
71869;SDS011;59739;47.696;11.746;2023-04-30T02:41:02;12.25;;;8.15;;
71869;SDS011;59739;47.696;11.746;2023-04-30T02:43:28;12.02;;;8.10;;
71869;SDS011;59739;47.696;11.746;2023-04-30T02:45:54;12.73;;;8.05;;
71869;SDS011;59739;47.696;11.746;2023-04-30T02:48:21;11.65;;;8.35;;
71869;SDS011;59739;47.696;11.746;2023-04-30T02:50:47;13.93;;;8.65;;
71869;SDS011;59739;47.696;11.746;2023-04-30T02:53:13;11.20;;;8.10;;
71869;SDS011;59739;47.696;11.746;2023-04-30T02:55:39;11.63;;;7.85;;
71869;SDS011;59739;47.696;11.746;2023-04-30T02:58:05;12.05;;;8.48;;
71869;SDS011;59739;47.696;11.746;2023-04-30T03:00:31;14.13;;;8.63;;
71869;SDS011;59739;47.696;11.746;2023-04-30T03:02:57;11.95;;;8.68;;
71869;SDS011;59739;47.696;11.746;2023-04-30T03:05:23;13.30;;;8.45;;
71869;SDS011;59739;47.696;11.746;2023-04-30T03:07:49;11.38;;;8.55;;
71869;SDS011;59739;47.696;11.746;2023-04-30T03:10:15;13.48;;;8.45;;
71869;SDS011;59739;47.696;11.746;2023-04-30T03:12:43;12.23;;;8.48;;
71869;SDS011;59739;47.696;11.746;2023-04-30T03:15:09;11.63;;;7.50;;
71869;SDS011;59739;47.696;11.746;2023-04-30T03:17:35;12.77;;;8.18;;
71869;SDS011;59739;47.696;11.746;2023-04-30T03:20:01;11.90;;;7.85;;
71869;SDS011;59739;47.696;11.746;2023-04-30T03:22:27;11.73;;;8.40;;
71869;SDS011;59739;47.696;11.746;2023-04-30T03:24:54;12.18;;;8.15;;
71869;SDS011;59739;47.696;11.746;2023-04-30T03:27:20;11.70;;;8.43;;
71869;SDS011;59739;47.696;11.746;2023-04-30T03:29:46;12.35;;;8.68;;
71869;SDS011;59739;47.696;11.746;2023-04-30T03:32:12;14.02;;;8.52;;
71869;SDS011;59739;47.696;11.746;2023-04-30T03:34:38;13.68;;;8.70;;
71869;SDS011;59739;47.696;11.746;2023-04-30T03:37:05;12.90;;;9.02;;
71869;SDS011;59739;47.696;11.746;2023-04-30T03:39:31;13.25;;;8.27;;
71869;SDS011;59739;47.696;11.746;2023-04-30T03:41:57;13.15;;;8.68;;
71869;SDS011;59739;47.696;11.746;2023-04-30T03:44:24;10.68;;;8.40;;
71869;SDS011;59739;47.696;11.746;2023-04-30T03:46:50;13.90;;;8.68;;
71869;SDS011;59739;47.696;11.746;2023-04-30T03:49:16;14.07;;;8.68;;
71869;SDS011;59739;47.696;11.746;2023-04-30T03:51:41;10.40;;;7.93;;
71869;SDS011;59739;47.696;11.746;2023-04-30T03:54:08;13.95;;;8.32;;
71869;SDS011;59739;47.696;11.746;2023-04-30T03:56:34;12.15;;;8.45;;
71869;SDS011;59739;47.696;11.746;2023-04-30T03:59:02;11.05;;;8.30;;
71869;SDS011;59739;47.696;11.746;2023-04-30T04:01:30;11.57;;;8.05;;
71869;SDS011;59739;47.696;11.746;2023-04-30T04:03:57;11.98;;;8.20;;
71869;SDS011;59739;47.696;11.746;2023-04-30T04:06:23;9.68;;;7.13;;
71869;SDS011;59739;47.696;11.746;2023-04-30T04:08:49;12.32;;;8.60;;
71869;SDS011;59739;47.696;11.746;2023-04-30T04:11:15;11.55;;;7.63;;
71869;SDS011;59739;47.696;11.746;2023-04-30T04:13:41;11.15;;;7.45;;
71869;SDS011;59739;47.696;11.746;2023-04-30T04:16:07;11.32;;;8.00;;
71869;SDS011;59739;47.696;11.746;2023-04-30T04:18:33;13.52;;;8.20;;
71869;SDS011;59739;47.696;11.746;2023-04-30T04:21:00;12.98;;;8.73;;
71869;SDS011;59739;47.696;11.746;2023-04-30T04:23:27;13.32;;;8.35;;
71869;SDS011;59739;47.696;11.746;2023-04-30T04:25:53;12.32;;;7.90;;
71869;SDS011;59739;47.696;11.746;2023-04-30T04:28:19;10.27;;;7.93;;
71869;SDS011;59739;47.696;11.746;2023-04-30T04:30:46;11.45;;;7.78;;
71869;SDS011;59739;47.696;11.746;2023-04-30T04:33:12;11.88;;;8.40;;
71869;SDS011;59739;47.696;11.746;2023-04-30T04:35:37;11.57;;;7.95;;
71869;SDS011;59739;47.696;11.746;2023-04-30T04:38:04;12.70;;;8.23;;
71869;SDS011;59739;47.696;11.746;2023-04-30T04:40:31;12.18;;;8.65;;
71869;SDS011;59739;47.696;11.746;2023-04-30T04:42:57;13.93;;;8.68;;
71869;SDS011;59739;47.696;11.746;2023-04-30T04:45:22;12.50;;;8.35;;
71869;SDS011;59739;47.696;11.746;2023-04-30T04:47:49;10.52;;;7.53;;
71869;SDS011;59739;47.696;11.746;2023-04-30T04:50:16;11.07;;;7.68;;
71869;SDS011;59739;47.696;11.746;2023-04-30T04:52:42;12.18;;;7.40;;
71869;SDS011;59739;47.696;11.746;2023-04-30T04:55:08;12.90;;;8.13;;
71869;SDS011;59739;47.696;11.746;2023-04-30T04:57:36;13.38;;;8.98;;
71869;SDS011;59739;47.696;11.746;2023-04-30T05:00:02;12.13;;;7.75;;
71869;SDS011;59739;47.696;11.746;2023-04-30T05:02:32;12.35;;;7.65;;
71869;SDS011;59739;47.696;11.746;2023-04-30T05:04:58;13.23;;;8.57;;
71869;SDS011;59739;47.696;11.746;2023-04-30T05:07:24;12.25;;;7.72;;
71869;SDS011;59739;47.696;11.746;2023-04-30T05:09:51;13.82;;;8.57;;
71869;SDS011;59739;47.696;11.746;2023-04-30T05:12:17;13.20;;;8.40;;
71869;SDS011;59739;47.696;11.746;2023-04-30T05:14:43;11.73;;;8.30;;
71869;SDS011;59739;47.696;11.746;2023-04-30T05:17:09;12.25;;;8.35;;
71869;SDS011;59739;47.696;11.746;2023-04-30T05:19:36;12.00;;;8.27;;
71869;SDS011;59739;47.696;11.746;2023-04-30T05:22:04;10.68;;;8.73;;
71869;SDS011;59739;47.696;11.746;2023-04-30T05:24:30;11.35;;;8.18;;
71869;SDS011;59739;47.696;11.746;2023-04-30T05:26:56;13.02;;;8.57;;
71869;SDS011;59739;47.696;11.746;2023-04-30T05:29:22;13.82;;;8.75;;
71869;SDS011;59739;47.696;11.746;2023-04-30T05:31:48;13.27;;;8.80;;
71869;SDS011;59739;47.696;11.746;2023-04-30T05:34:14;13.05;;;9.63;;
71869;SDS011;59739;47.696;11.746;2023-04-30T05:36:40;13.45;;;9.65;;
71869;SDS011;59739;47.696;11.746;2023-04-30T05:39:06;12.38;;;8.75;;
71869;SDS011;59739;47.696;11.746;2023-04-30T05:41:33;11.65;;;9.23;;
71869;SDS011;59739;47.696;11.746;2023-04-30T05:43:59;13.77;;;9.45;;
71869;SDS011;59739;47.696;11.746;2023-04-30T05:46:26;12.93;;;9.50;;
71869;SDS011;59739;47.696;11.746;2023-04-30T05:48:52;12.88;;;9.82;;
71869;SDS011;59739;47.696;11.746;2023-04-30T05:51:18;13.13;;;9.52;;
71869;SDS011;59739;47.696;11.746;2023-04-30T05:53:44;12.77;;;9.65;;
71869;SDS011;59739;47.696;11.746;2023-04-30T05:56:11;13.68;;;9.20;;
71869;SDS011;59739;47.696;11.746;2023-04-30T05:58:37;13.52;;;9.43;;
71869;SDS011;59739;47.696;11.746;2023-04-30T06:01:04;13.80;;;9.68;;
71869;SDS011;59739;47.696;11.746;2023-04-30T06:03:30;14.65;;;9.55;;
71869;SDS011;59739;47.696;11.746;2023-04-30T06:05:56;12.98;;;9.20;;
71869;SDS011;59739;47.696;11.746;2023-04-30T06:08:22;12.43;;;9.38;;
71869;SDS011;59739;47.696;11.746;2023-04-30T06:10:49;13.98;;;9.95;;
71869;SDS011;59739;47.696;11.746;2023-04-30T06:13:15;13.23;;;9.18;;
71869;SDS011;59739;47.696;11.746;2023-04-30T06:15:41;14.80;;;9.50;;
71869;SDS011;59739;47.696;11.746;2023-04-30T06:18:07;13.02;;;9.60;;
71869;SDS011;59739;47.696;11.746;2023-04-30T06:20:33;12.23;;;8.80;;
71869;SDS011;59739;47.696;11.746;2023-04-30T06:22:59;12.95;;;9.88;;
71869;SDS011;59739;47.696;11.746;2023-04-30T06:25:27;13.50;;;9.48;;
71869;SDS011;59739;47.696;11.746;2023-04-30T06:27:53;12.40;;;9.57;;
71869;SDS011;59739;47.696;11.746;2023-04-30T06:30:20;13.13;;;9.70;;
71869;SDS011;59739;47.696;11.746;2023-04-30T06:32:46;13.07;;;9.43;;
71869;SDS011;59739;47.696;11.746;2023-04-30T06:35:11;11.93;;;9.13;;
71869;SDS011;59739;47.696;11.746;2023-04-30T06:37:38;12.32;;;9.10;;
71869;SDS011;59739;47.696;11.746;2023-04-30T06:40:05;11.27;;;8.73;;
71869;SDS011;59739;47.696;11.746;2023-04-30T06:42:32;12.70;;;9.00;;
71869;SDS011;59739;47.696;11.746;2023-04-30T06:44:59;11.90;;;9.18;;
71869;SDS011;59739;47.696;11.746;2023-04-30T06:47:26;12.40;;;9.13;;
71869;SDS011;59739;47.696;11.746;2023-04-30T06:49:58;12.27;;;8.80;;
71869;SDS011;59739;47.696;11.746;2023-04-30T06:52:25;11.05;;;8.18;;
71869;SDS011;59739;47.696;11.746;2023-04-30T06:54:51;11.45;;;8.18;;
71869;SDS011;59739;47.696;11.746;2023-04-30T06:57:17;12.25;;;8.60;;
71869;SDS011;59739;47.696;11.746;2023-04-30T06:59:43;13.07;;;9.73;;
71869;SDS011;59739;47.696;11.746;2023-04-30T07:02:10;9.93;;;8.55;;
71869;SDS011;59739;47.696;11.746;2023-04-30T07:04:36;10.93;;;8.63;;
71869;SDS011;59739;47.696;11.746;2023-04-30T07:07:02;11.48;;;8.55;;
71869;SDS011;59739;47.696;11.746;2023-04-30T07:09:28;11.57;;;9.13;;
71869;SDS011;59739;47.696;11.746;2023-04-30T07:11:54;10.52;;;7.68;;
71869;SDS011;59739;47.696;11.746;2023-04-30T07:14:21;10.82;;;8.70;;
71869;SDS011;59739;47.696;11.746;2023-04-30T07:16:50;14.10;;;9.93;;
71869;SDS011;59739;47.696;11.746;2023-04-30T07:19:17;12.02;;;8.23;;
71869;SDS011;59739;47.696;11.746;2023-04-30T07:21:43;12.80;;;9.25;;
71869;SDS011;59739;47.696;11.746;2023-04-30T07:24:10;10.68;;;7.57;;
71869;SDS011;59739;47.696;11.746;2023-04-30T07:26:36;11.60;;;9.38;;
71869;SDS011;59739;47.696;11.746;2023-04-30T07:29:03;14.65;;;9.30;;
71869;SDS011;59739;47.696;11.746;2023-04-30T07:31:29;15.18;;;10.30;;
71869;SDS011;59739;47.696;11.746;2023-04-30T07:33:55;11.60;;;9.15;;
71869;SDS011;59739;47.696;11.746;2023-04-30T07:36:21;12.13;;;8.50;;
71869;SDS011;59739;47.696;11.746;2023-04-30T07:38:47;15.18;;;10.38;;
71869;SDS011;59739;47.696;11.746;2023-04-30T07:41:13;11.57;;;8.55;;
71869;SDS011;59739;47.696;11.746;2023-04-30T07:43:39;11.25;;;8.23;;
71869;SDS011;59739;47.696;11.746;2023-04-30T07:46:09;11.00;;;8.38;;
71869;SDS011;59739;47.696;11.746;2023-04-30T07:48:35;10.50;;;8.48;;
71869;SDS011;59739;47.696;11.746;2023-04-30T07:51:01;11.60;;;9.43;;
71869;SDS011;59739;47.696;11.746;2023-04-30T07:53:29;11.73;;;8.52;;
71869;SDS011;59739;47.696;11.746;2023-04-30T07:55:55;14.77;;;9.60;;
71869;SDS011;59739;47.696;11.746;2023-04-30T07:58:21;11.75;;;8.52;;
71869;SDS011;59739;47.696;11.746;2023-04-30T08:00:47;10.52;;;7.97;;
71869;SDS011;59739;47.696;11.746;2023-04-30T08:03:13;10.07;;;8.23;;
71869;SDS011;59739;47.696;11.746;2023-04-30T08:05:39;13.25;;;8.85;;
71869;SDS011;59739;47.696;11.746;2023-04-30T08:08:05;10.85;;;8.55;;
71869;SDS011;59739;47.696;11.746;2023-04-30T08:10:32;11.40;;;8.20;;
71869;SDS011;59739;47.696;11.746;2023-04-30T08:12:58;9.85;;;7.63;;
71869;SDS011;59739;47.696;11.746;2023-04-30T08:15:25;10.15;;;7.95;;
71869;SDS011;59739;47.696;11.746;2023-04-30T08:17:51;10.85;;;8.05;;
71869;SDS011;59739;47.696;11.746;2023-04-30T08:20:17;11.23;;;7.93;;
71869;SDS011;59739;47.696;11.746;2023-04-30T08:22:44;11.88;;;8.45;;
71869;SDS011;59739;47.696;11.746;2023-04-30T08:25:11;8.88;;;7.18;;
71869;SDS011;59739;47.696;11.746;2023-04-30T08:27:37;11.27;;;8.52;;
71869;SDS011;59739;47.696;11.746;2023-04-30T08:30:04;9.35;;;7.45;;
71869;SDS011;59739;47.696;11.746;2023-04-30T08:32:36;11.38;;;7.78;;
71869;SDS011;59739;47.696;11.746;2023-04-30T08:35:05;10.07;;;6.97;;
71869;SDS011;59739;47.696;11.746;2023-04-30T08:37:32;9.65;;;6.85;;
71869;SDS011;59739;47.696;11.746;2023-04-30T08:39:58;9.13;;;7.28;;
71869;SDS011;59739;47.696;11.746;2023-04-30T08:42:26;8.45;;;6.80;;
71869;SDS011;59739;47.696;11.746;2023-04-30T08:44:58;10.23;;;7.75;;
71869;SDS011;59739;47.696;11.746;2023-04-30T08:47:26;8.70;;;6.80;;
71869;SDS011;59739;47.696;11.746;2023-04-30T08:49:52;8.90;;;7.30;;
71869;SDS011;59739;47.696;11.746;2023-04-30T08:52:18;12.48;;;7.70;;
71869;SDS011;59739;47.696;11.746;2023-04-30T08:54:45;8.98;;;7.25;;
71869;SDS011;59739;47.696;11.746;2023-04-30T08:57:13;9.18;;;7.47;;
71869;SDS011;59739;47.696;11.746;2023-04-30T08:59:39;8.98;;;6.47;;
71869;SDS011;59739;47.696;11.746;2023-04-30T09:02:05;8.55;;;6.55;;
71869;SDS011;59739;47.696;11.746;2023-04-30T09:04:34;8.43;;;6.22;;
71869;SDS011;59739;47.696;11.746;2023-04-30T09:07:00;8.05;;;6.10;;
71869;SDS011;59739;47.696;11.746;2023-04-30T09:09:28;6.82;;;6.13;;
71869;SDS011;59739;47.696;11.746;2023-04-30T09:14:57;7.05;;;5.97;;
71869;SDS011;59739;47.696;11.746;2023-04-30T09:17:27;8.45;;;6.03;;
71869;SDS011;59739;47.696;11.746;2023-04-30T09:19:54;6.38;;;5.05;;
71869;SDS011;59739;47.696;11.746;2023-04-30T09:22:42;5.50;;;4.30;;
71869;SDS011;59739;47.696;11.746;2023-04-30T09:25:09;6.13;;;5.07;;
71869;SDS011;59739;47.696;11.746;2023-04-30T09:27:35;6.93;;;4.90;;
71869;SDS011;59739;47.696;11.746;2023-04-30T09:30:02;6.55;;;4.60;;
71869;SDS011;59739;47.696;11.746;2023-04-30T09:32:28;6.32;;;4.95;;
71869;SDS011;59739;47.696;11.746;2023-04-30T09:34:54;5.47;;;4.30;;
71869;SDS011;59739;47.696;11.746;2023-04-30T09:37:20;5.22;;;4.45;;
71869;SDS011;59739;47.696;11.746;2023-04-30T09:39:53;5.82;;;4.13;;
71869;SDS011;59739;47.696;11.746;2023-04-30T09:42:20;5.05;;;4.13;;
71869;SDS011;59739;47.696;11.746;2023-04-30T09:44:47;4.55;;;4.13;;
71869;SDS011;59739;47.696;11.746;2023-04-30T09:47:14;5.40;;;4.38;;
71869;SDS011;59739;47.696;11.746;2023-04-30T09:49:43;5.93;;;4.38;;
71869;SDS011;59739;47.696;11.746;2023-04-30T09:52:14;5.40;;;4.78;;
71869;SDS011;59739;47.696;11.746;2023-04-30T09:54:40;6.40;;;4.95;;
71869;SDS011;59739;47.696;11.746;2023-04-30T09:57:09;5.38;;;4.57;;
71869;SDS011;59739;47.696;11.746;2023-04-30T09:59:38;4.93;;;4.03;;
71869;SDS011;59739;47.696;11.746;2023-04-30T10:02:12;6.63;;;3.95;;
71869;SDS011;59739;47.696;11.746;2023-04-30T10:04:41;6.38;;;4.35;;
71869;SDS011;59739;47.696;11.746;2023-04-30T10:09:54;3.80;;;3.50;;
71869;SDS011;59739;47.696;11.746;2023-04-30T10:12:47;4.95;;;3.85;;
71869;SDS011;59739;47.696;11.746;2023-04-30T10:18:00;4.68;;;4.15;;
71869;SDS011;59739;47.696;11.746;2023-04-30T10:20:33;6.10;;;3.35;;
71869;SDS011;59739;47.696;11.746;2023-04-30T10:23:01;5.28;;;3.83;;
71869;SDS011;59739;47.696;11.746;2023-04-30T10:25:33;5.50;;;4.07;;
71869;SDS011;59739;47.696;11.746;2023-04-30T10:27:59;5.00;;;3.90;;
71869;SDS011;59739;47.696;11.746;2023-04-30T10:30:25;4.57;;;3.78;;
71869;SDS011;59739;47.696;11.746;2023-04-30T10:32:57;5.10;;;3.60;;
71869;SDS011;59739;47.696;11.746;2023-04-30T10:38:37;3.88;;;3.53;;
71869;SDS011;59739;47.696;11.746;2023-04-30T10:41:05;3.38;;;3.08;;
71869;SDS011;59739;47.696;11.746;2023-04-30T10:43:34;3.83;;;3.15;;
71869;SDS011;59739;47.696;11.746;2023-04-30T10:46:01;3.50;;;3.15;;
71869;SDS011;59739;47.696;11.746;2023-04-30T10:48:32;3.78;;;3.42;;
71869;SDS011;59739;47.696;11.746;2023-04-30T10:51:00;4.10;;;3.75;;
71869;SDS011;59739;47.696;11.746;2023-04-30T10:53:28;5.05;;;3.53;;
71869;SDS011;59739;47.696;11.746;2023-04-30T10:56:01;3.65;;;3.28;;
71869;SDS011;59739;47.696;11.746;2023-04-30T10:58:34;3.90;;;3.28;;
71869;SDS011;59739;47.696;11.746;2023-04-30T11:01:08;3.72;;;3.30;;
71869;SDS011;59739;47.696;11.746;2023-04-30T11:03:39;3.65;;;3.30;;
71869;SDS011;59739;47.696;11.746;2023-04-30T11:06:10;3.20;;;2.90;;
71869;SDS011;59739;47.696;11.746;2023-04-30T11:08:44;3.55;;;3.05;;
71869;SDS011;59739;47.696;11.746;2023-04-30T11:11:12;3.50;;;3.20;;
71869;SDS011;59739;47.696;11.746;2023-04-30T11:13:45;3.55;;;2.92;;
71869;SDS011;59739;47.696;11.746;2023-04-30T11:16:33;4.28;;;2.80;;
71869;SDS011;59739;47.696;11.746;2023-04-30T11:19:05;4.60;;;2.60;;
71869;SDS011;59739;47.696;11.746;2023-04-30T11:21:41;4.20;;;3.15;;
71869;SDS011;59739;47.696;11.746;2023-04-30T11:27:24;3.13;;;2.83;;
71869;SDS011;59739;47.696;11.746;2023-04-30T11:29:54;3.50;;;3.00;;
71869;SDS011;59739;47.696;11.746;2023-04-30T11:32:24;3.72;;;3.42;;
71869;SDS011;59739;47.696;11.746;2023-04-30T11:34:59;3.83;;;3.53;;
71869;SDS011;59739;47.696;11.746;2023-04-30T11:37:33;4.13;;;3.20;;
71869;SDS011;59739;47.696;11.746;2023-04-30T11:40:06;3.53;;;3.03;;
71869;SDS011;59739;47.696;11.746;2023-04-30T11:42:39;3.97;;;3.00;;
71869;SDS011;59739;47.696;11.746;2023-04-30T11:45:11;3.05;;;2.60;;
71869;SDS011;59739;47.696;11.746;2023-04-30T11:50:16;3.60;;;3.30;;
71869;SDS011;59739;47.696;11.746;2023-04-30T11:52:48;3.42;;;3.13;;
71869;SDS011;59739;47.696;11.746;2023-04-30T11:55:17;3.80;;;3.40;;
71869;SDS011;59739;47.696;11.746;2023-04-30T11:57:47;4.43;;;3.95;;
71869;SDS011;59739;47.696;11.746;2023-04-30T12:00:21;6.20;;;4.50;;
71869;SDS011;59739;47.696;11.746;2023-04-30T12:02:52;5.32;;;4.28;;
71869;SDS011;59739;47.696;11.746;2023-04-30T12:05:19;4.75;;;3.85;;
71869;SDS011;59739;47.696;11.746;2023-04-30T12:10:29;3.60;;;3.30;;
71869;SDS011;59739;47.696;11.746;2023-04-30T12:12:57;5.47;;;4.53;;
71869;SDS011;59739;47.696;11.746;2023-04-30T12:15:23;4.55;;;4.10;;
71869;SDS011;59739;47.696;11.746;2023-04-30T12:17:52;4.40;;;4.00;;
71869;SDS011;59739;47.696;11.746;2023-04-30T12:20:21;5.07;;;4.18;;
71869;SDS011;59739;47.696;11.746;2023-04-30T12:22:50;5.72;;;3.80;;
71869;SDS011;59739;47.696;11.746;2023-04-30T12:25:17;4.70;;;4.07;;
71869;SDS011;59739;47.696;11.746;2023-04-30T12:27:50;4.20;;;3.80;;
71869;SDS011;59739;47.696;11.746;2023-04-30T12:30:24;3.83;;;3.40;;
71869;SDS011;59739;47.696;11.746;2023-04-30T12:32:52;4.32;;;3.60;;
71869;SDS011;59739;47.696;11.746;2023-04-30T12:35:21;4.07;;;3.78;;
71869;SDS011;59739;47.696;11.746;2023-04-30T12:37:52;4.85;;;3.85;;
71869;SDS011;59739;47.696;11.746;2023-04-30T12:40:28;3.95;;;3.58;;
71869;SDS011;59739;47.696;11.746;2023-04-30T12:43:00;8.30;;;3.40;;
71869;SDS011;59739;47.696;11.746;2023-04-30T12:48:23;3.95;;;3.55;;
71869;SDS011;59739;47.696;11.746;2023-04-30T12:50:54;4.22;;;3.83;;
71869;SDS011;59739;47.696;11.746;2023-04-30T12:53:25;3.85;;;3.55;;
71869;SDS011;59739;47.696;11.746;2023-04-30T12:56:08;4.38;;;3.97;;
71869;SDS011;59739;47.696;11.746;2023-04-30T12:58:41;4.30;;;3.90;;
71869;SDS011;59739;47.696;11.746;2023-04-30T13:01:18;3.97;;;3.30;;
71869;SDS011;59739;47.696;11.746;2023-04-30T13:03:46;4.00;;;3.70;;
71869;SDS011;59739;47.696;11.746;2023-04-30T13:06:12;4.35;;;3.95;;
71869;SDS011;59739;47.696;11.746;2023-04-30T13:08:39;4.50;;;4.10;;
71869;SDS011;59739;47.696;11.746;2023-04-30T13:11:05;4.22;;;3.83;;
71869;SDS011;59739;47.696;11.746;2023-04-30T13:13:32;4.40;;;4.00;;
71869;SDS011;59739;47.696;11.746;2023-04-30T13:15:58;4.93;;;4.43;;
71869;SDS011;59739;47.696;11.746;2023-04-30T13:18:24;5.30;;;3.50;;
71869;SDS011;59739;47.696;11.746;2023-04-30T13:20:50;3.92;;;3.63;;
71869;SDS011;59739;47.696;11.746;2023-04-30T13:23:16;4.45;;;3.72;;
71869;SDS011;59739;47.696;11.746;2023-04-30T13:25:43;4.45;;;3.70;;
71869;SDS011;59739;47.696;11.746;2023-04-30T13:28:09;4.68;;;3.80;;
71869;SDS011;59739;47.696;11.746;2023-04-30T13:30:35;4.35;;;3.95;;
71869;SDS011;59739;47.696;11.746;2023-04-30T13:33:01;5.63;;;3.67;;
71869;SDS011;59739;47.696;11.746;2023-04-30T13:35:27;4.82;;;4.03;;
71869;SDS011;59739;47.696;11.746;2023-04-30T13:37:54;4.82;;;4.00;;
71869;SDS011;59739;47.696;11.746;2023-04-30T13:40:23;4.82;;;3.72;;
71869;SDS011;59739;47.696;11.746;2023-04-30T13:42:49;4.10;;;3.72;;
71869;SDS011;59739;47.696;11.746;2023-04-30T13:45:15;4.55;;;3.75;;
71869;SDS011;59739;47.696;11.746;2023-04-30T13:47:46;4.50;;;4.00;;
71869;SDS011;59739;47.696;11.746;2023-04-30T13:50:13;3.70;;;3.40;;
71869;SDS011;59739;47.696;11.746;2023-04-30T13:52:39;4.07;;;3.67;;
71869;SDS011;59739;47.696;11.746;2023-04-30T13:55:05;3.85;;;3.20;;
71869;SDS011;59739;47.696;11.746;2023-04-30T13:57:33;3.72;;;3.30;;
71869;SDS011;59739;47.696;11.746;2023-04-30T13:59:59;4.05;;;3.22;;
71869;SDS011;59739;47.696;11.746;2023-04-30T14:02:26;4.72;;;3.83;;
71869;SDS011;59739;47.696;11.746;2023-04-30T14:04:55;3.80;;;3.22;;
71869;SDS011;59739;47.696;11.746;2023-04-30T14:07:22;4.05;;;3.65;;
71869;SDS011;59739;47.696;11.746;2023-04-30T14:09:48;3.90;;;3.35;;
71869;SDS011;59739;47.696;11.746;2023-04-30T14:12:15;4.38;;;3.63;;
71869;SDS011;59739;47.696;11.746;2023-04-30T14:14:44;4.07;;;3.60;;
71869;SDS011;59739;47.696;11.746;2023-04-30T14:17:10;5.07;;;3.55;;
71869;SDS011;59739;47.696;11.746;2023-04-30T14:19:39;5.80;;;3.95;;
71869;SDS011;59739;47.696;11.746;2023-04-30T14:22:05;4.07;;;3.67;;
71869;SDS011;59739;47.696;11.746;2023-04-30T14:24:32;4.22;;;3.55;;
71869;SDS011;59739;47.696;11.746;2023-04-30T14:26:59;3.80;;;3.47;;
71869;SDS011;59739;47.696;11.746;2023-04-30T14:29:25;4.15;;;3.78;;
71869;SDS011;59739;47.696;11.746;2023-04-30T14:31:51;4.40;;;4.00;;
71869;SDS011;59739;47.696;11.746;2023-04-30T14:34:18;4.03;;;3.63;;
71869;SDS011;59739;47.696;11.746;2023-04-30T14:36:48;5.00;;;3.92;;
71869;SDS011;59739;47.696;11.746;2023-04-30T14:39:14;4.70;;;3.78;;
71869;SDS011;59739;47.696;11.746;2023-04-30T14:41:41;3.95;;;3.40;;
71869;SDS011;59739;47.696;11.746;2023-04-30T14:44:07;4.07;;;3.38;;
71869;SDS011;59739;47.696;11.746;2023-04-30T14:46:33;4.75;;;3.50;;
71869;SDS011;59739;47.696;11.746;2023-04-30T14:48:59;4.30;;;3.80;;
71869;SDS011;59739;47.696;11.746;2023-04-30T14:51:25;3.50;;;3.20;;
71869;SDS011;59739;47.696;11.746;2023-04-30T14:53:53;4.60;;;3.50;;
71869;SDS011;59739;47.696;11.746;2023-04-30T14:56:19;4.70;;;3.50;;
71869;SDS011;59739;47.696;11.746;2023-04-30T14:58:45;5.00;;;2.85;;
71869;SDS011;59739;47.696;11.746;2023-04-30T15:01:11;4.05;;;3.38;;
71869;SDS011;59739;47.696;11.746;2023-04-30T15:03:36;4.07;;;3.30;;
71869;SDS011;59739;47.696;11.746;2023-04-30T15:06:03;4.25;;;3.67;;
71869;SDS011;59739;47.696;11.746;2023-04-30T15:08:29;4.13;;;3.53;;
71869;SDS011;59739;47.696;11.746;2023-04-30T15:10:55;4.65;;;4.13;;
71869;SDS011;59739;47.696;11.746;2023-04-30T15:13:25;4.03;;;3.67;;
71869;SDS011;59739;47.696;11.746;2023-04-30T15:15:53;3.70;;;3.40;;